地図

経路データ

SID SEASON NUMBER BASIN SUBBASIN NAME ISO_TIME NATURE LAT LON WMO_WIND WMO_PRES WMO_AGENCY TRACK_TYPE DIST2LAND LANDFALL IFLAG USA_AGENCY USA_ATCF_ID USA_LAT USA_LON USA_RECORD USA_STATUS USA_WIND USA_PRES USA_SSHS USA_R34_NE USA_R34_SE USA_R34_SW USA_R34_NW USA_R50_NE USA_R50_SE USA_R50_SW USA_R50_NW USA_R64_NE USA_R64_SE USA_R64_SW USA_R64_NW USA_POCI USA_ROCI USA_RMW USA_EYE TOKYO_LAT TOKYO_LON TOKYO_GRADE TOKYO_WIND TOKYO_PRES TOKYO_R50_DIR TOKYO_R50_LONG TOKYO_R50_SHORT TOKYO_R30_DIR TOKYO_R30_LONG TOKYO_R30_SHORT TOKYO_LAND CMA_LAT CMA_LON CMA_CAT CMA_WIND CMA_PRES HKO_LAT HKO_LON HKO_CAT HKO_WIND HKO_PRES NEWDELHI_LAT NEWDELHI_LON NEWDELHI_GRADE NEWDELHI_WIND NEWDELHI_PRES NEWDELHI_CI NEWDELHI_DP NEWDELHI_POCI REUNION_LAT REUNION_LON REUNION_TYPE REUNION_WIND REUNION_PRES REUNION_TNUM REUNION_CI REUNION_RMW REUNION_R34_NE REUNION_R34_SE REUNION_R34_SW REUNION_R34_NW REUNION_R50_NE REUNION_R50_SE REUNION_R50_SW REUNION_R50_NW REUNION_R64_NE REUNION_R64_SE REUNION_R64_SW REUNION_R64_NW BOM_LAT BOM_LON BOM_TYPE BOM_WIND BOM_PRES BOM_TNUM BOM_CI BOM_RMW BOM_R34_NE BOM_R34_SE BOM_R34_SW BOM_R34_NW BOM_R50_NE BOM_R50_SE BOM_R50_SW BOM_R50_NW BOM_R64_NE BOM_R64_SE BOM_R64_SW BOM_R64_NW BOM_ROCI BOM_POCI BOM_EYE BOM_POS_METHOD BOM_PRES_METHOD NADI_LAT NADI_LON NADI_CAT NADI_WIND NADI_PRES WELLINGTON_LAT WELLINGTON_LON WELLINGTON_WIND WELLINGTON_PRES DS824_LAT DS824_LON DS824_STAGE DS824_WIND DS824_PRES TD9636_LAT TD9636_LON TD9636_STAGE TD9636_WIND TD9636_PRES TD9635_LAT TD9635_LON TD9635_WIND TD9635_PRES TD9635_ROCI NEUMANN_LAT NEUMANN_LON NEUMANN_CLASS NEUMANN_WIND NEUMANN_PRES MLC_LAT MLC_LON MLC_CLASS MLC_WIND MLC_PRES USA_GUST BOM_GUST BOM_GUST_PER REUNION_GUST REUNION_GUST_PER USA_SEAHGT USA_SEARAD_NE USA_SEARAD_SE USA_SEARAD_SW USA_SEARAD_NW STORM_SPEED STORM_DIR
1961284N18137 1961 105 WP MM NOT_NAMED 1961-10-10 12:00:00 NR 17.8000 136.800 spur-merge 1365 1351 __________O___ -1 17.8000 136.800 1 3 228
1961284N18137 1961 105 WP MM NOT_NAMED 1961-10-10 15:00:00 NR 17.7125 136.700 spur-merge 1351 1337 __________P___ -1 17.7125 136.700 1 3 222
1961284N18137 1961 105 WP MM NOT_NAMED 1961-10-10 18:00:00 NR 17.5800 136.591 spur-merge 1337 1318 __________P___ -1 17.5800 136.591 1 4 212
1961284N18137 1961 105 WP MM NOT_NAMED 1961-10-10 21:00:00 NR 17.3575 136.460 spur-merge 1318 1280 __________P___ -1 17.3575 136.460 1 6 206
1961284N18137 1961 105 WP MM NOT_NAMED 1961-10-11 00:00:00 NR 17.0000 136.300 spur-merge 1280 1239 __________O___ -1 17.0000 136.300 1 9 201
1961284N18137 1961 105 WP MM NOT_NAMED 1961-10-11 03:00:00 NR 16.4792 136.102 spur-merge 1239 1196 __________P___ -1 16.4792 136.102 1 12 200
1961284N18137 1961 105 WP MM NOT_NAMED 1961-10-11 06:00:00 NR 15.8347 135.867 spur-merge 1192 1142 __________P___ -1 15.8347 135.867 1 14 200
1961284N18137 1961 105 WP MM NOT_NAMED 1961-10-11 09:00:00 NR 15.1228 135.599 spur-merge 1138 1089 __________P___ -1 15.1228 135.599 1 15 201
1961284N18137 1961 105 WP MM NOT_NAMED 1961-10-11 12:00:00 NR 14.4000 135.300 spur-merge 1089 1041 __________O___ -1 14.4000 135.300 1 16 201
1961284N18137 1961 105 WP MM NOT_NAMED 1961-10-11 15:00:00 NR 13.5997 135.002 spur-merge 1041 991 __________P___ -1 13.5997 135.002 1 17 201
1961284N18137 1961 105 WP MM NOT_NAMED 1961-10-11 18:00:00 NR 12.8223 134.673 spur-merge 989 936 __________P___ -1 12.8223 134.673 1 16 206
1961284N18137 1961 105 WP MM NOT_NAMED 1961-10-11 21:00:00 NR 12.1838 134.308 spur-merge 936 888 __________P___ -1 12.1838 134.308 1 13 216
1961284N18137 1961 105 WP MM NOT_NAMED 1961-10-12 00:00:00 NR 11.8000 133.900 spur-merge 888 832 __________O___ -1 11.8000 133.900 1 10 244
1961284N18137 1961 105 WP MM NOT_NAMED 1961-10-12 03:00:00 NR 11.7527 133.412 spur-merge 833 780 __________P___ -1 11.7527 133.412 1 10 280
1961284N18137 1961 105 WP MM NOT_NAMED 1961-10-12 06:00:00 NR 11.9683 132.887 spur-merge 782 733 __________P___ -1 11.9683 132.887 1 12 301
1961284N18137 1961 105 WP MM NOT_NAMED 1961-10-12 09:00:00 NR 12.3746 132.368 spur-merge 736 694 __________P___ -1 12.3746 132.368 1 13 314
1961284N18137 1961 105 WP MM NOT_NAMED 1961-10-12 12:00:00 NR 12.9000 131.900 spur-merge 697 673 __________O___ -1 12.9000 131.900 1 14 324
1961284N18137 1961 105 WP MM NOT_NAMED 1961-10-12 15:00:00 NR 13.5010 131.543 spur-merge 666 660 __________P___ -1 13.5010 131.543 1 14 334
1961284N18137 1961 105 WP MM NOT_NAMED 1961-10-12 18:00:00 NR 14.1868 131.241 spur-merge 656 654 __________P___ -1 14.1868 131.241 1 15 338
1961284N18137 1961 105 WP MM NOT_NAMED 1961-10-12 21:00:00 NR 14.8543 130.968 spur-merge 667 657 __________P___ -1 14.8543 130.968 1 13 337
1961284N18137 1961 105 WP MM NOT_NAMED 1961-10-13 00:00:00 NR 15.4000 130.700 spur-merge 666 658 __________O___ -1 15.4000 130.700 1 10 328
1961284N18137 1961 105 WP MM NOT_NAMED 1961-10-13 03:00:00 NR 15.7147 130.411 spur-merge 658 646 __________P___ -1 15.7147 130.411 1 7 312
1961284N18137 1961 105 WP MM NOT_NAMED 1961-10-13 06:00:00 NR 15.8945 130.122 spur-merge 646 626 __________P___ -1 15.8945 130.122 1 6 295
1961284N18137 1961 105 WP MM NOT_NAMED 1961-10-13 09:00:00 NR 15.9771 129.821 spur-merge 626 596 __________P___ -1 15.9771 129.821 1 6 280
1961284N18137 1961 105 WP MM NOT_NAMED 1961-10-13 12:00:00 NR 16.0000 129.500 spur-merge 596 561 __________O___ -1 16.0000 129.500 1 7 278
1961284N18137 1961 105 WP MM NOT_NAMED 1961-10-13 15:00:00 NR 16.0703 129.118 spur-merge 561 523 __________P___ -1 16.0703 129.118 1 8 276
1961284N18137 1961 105 WP MM NOT_NAMED 1961-10-13 18:00:00 NR 16.0854 128.720 spur-merge 523 489 __________P___ -1 16.0854 128.720 1 8 267
1961284N18137 1961 105 WP MM NOT_NAMED 1961-10-13 21:00:00 NR 16.0328 128.337 spur-merge 480 447 __________P___ -1 16.0328 128.337 1 7 255
1961284N18137 1961 105 WP MM NOT_NAMED 1961-10-14 00:00:00 NR 15.9000 128.000 spur-merge 447 408 __________O___ -1 15.9000 128.000 1 7 241
1961284N18137 1961 105 WP MM NOT_NAMED 1961-10-14 03:00:00 NR 15.7032 127.713 spur-merge 408 373 __________P___ -1 15.7032 127.713 1 7 227
1961284N18137 1961 105 WP MM NOT_NAMED 1961-10-14 06:00:00 NR 15.4272 127.479 spur-merge 373 340 __________P___ -1 15.4272 127.479 1 7 212
1961284N18137 1961 105 WP MM NOT_NAMED 1961-10-14 09:00:00 NR 15.0876 127.306 spur-merge 340 314 __________P___ -1 15.0876 127.306 1 8 200
1961284N18137 1961 105 WP MM NOT_NAMED 1961-10-14 12:00:00 NR 14.7000 127.200 spur-merge 314 295 __________O___ -1 14.7000 127.200 1 9 0
1961284N18137 1961 105 WP MM NOT_NAMED 1961-10-14 15:00:00 NR 14.2070 127.287 spur-merge 295 265 __________P___ -1 14.2070 127.287 1 10 168
1961284N18137 1961 105 WP MM NOT_NAMED 1961-10-14 18:00:00 NR 13.6861 127.416 spur-merge 265 244 __________P___ -1 13.6861 127.416 1 10 170
1961284N18137 1961 105 WP MM NOT_NAMED 1961-10-14 21:00:00 NR 13.2221 127.462 spur-merge 244 210 __________P___ -1 13.2221 127.462 1 8 188
1961284N18137 1961 105 WP MM NOT_NAMED 1961-10-15 00:00:00 NR 12.9000 127.300 spur-merge 210 156 __________O___ -1 12.9000 127.300 1 9 236
1961284N18137 1961 105 WP MM NOT_NAMED 1961-10-15 03:00:00 NR 12.7487 126.739 spur-merge 141 78 __________P___ -1 12.7487 126.739 1 13 264
1961284N18137 1961 105 WP MM NOT_NAMED 1961-10-15 06:00:00 NR 12.7527 125.971 spur-merge 86 39 __________P___ -1 12.7527 125.971 1 16 276
1961284N18137 1961 105 WP MM NOT_NAMED 1961-10-15 09:00:00 NR 12.9050 125.117 spur-merge 44 31 __________P___ -1 12.9050 125.117 1 17 285
1961284N18137 1961 105 WP MM NOT_NAMED 1961-10-15 12:00:00 NR 13.2000 124.300 spur-merge 31 0 __________O___ -1 13.2000 124.300 1 16 301
1961284N18137 1961 105 WP MM NOT_NAMED 1961-10-15 15:00:00 NR 13.7253 123.740 spur-merge 0 0 __________P___ -1 13.7253 123.740 1 16 318
1961284N18137 1961 105 WP MM NOT_NAMED 1961-10-15 18:00:00 NR 14.3648 123.226 spur-merge 39 39 __________P___ -1 14.3648 123.226 1 16 321
1961284N18137 1961 105 WP MM NOT_NAMED 1961-10-15 21:00:00 NR 14.9720 122.699 spur-merge 89 63 __________P___ -1 14.9720 122.699 1 15 314
1961284N18137 1961 105 WP MM NOT_NAMED 1961-10-16 00:00:00 NR 15.4000 122.100 spur-merge 63 0 __________O___ -1 15.4000 122.100 1 14 292
1961284N18137 1961 105 WP MM NOT_NAMED 1961-10-16 03:00:00 NR 15.4967 121.332 spur-merge 0 0 __________P___ -1 15.4967 121.332 1 16 270
1961284N18137 1961 105 WP MM NOT_NAMED 1961-10-16 06:00:00 NR 15.3935 120.493 spur-merge 0 0 __________P___ -1 15.3935 120.493 1 17 258
1961284N18137 1961 105 WP MM NOT_NAMED 1961-10-16 09:00:00 NR 15.1435 119.632 spur-merge 46 46 __________P___ -1 15.1435 119.632 1 17 250
1961284N18137 1961 105 WP MM NOT_NAMED 1961-10-16 12:00:00 NR 14.8000 118.800 spur-merge 135 135 __________O___ -1 14.8000 118.800 1 17 246
1961284N18137 1961 105 WP MM NOT_NAMED 1961-10-16 15:00:00 NR 14.4378 117.994 spur-merge 230 230 __________P___ -1 14.4378 117.994 1 17 242
1961284N18137 1961 105 WP MM NOT_NAMED 1961-10-16 18:00:00 NR 14.0027 117.233 spur-merge 325 325 __________P___ -1 14.0027 117.233 1 17 237
1961284N18137 1961 105 WP MM NOT_NAMED 1961-10-16 21:00:00 NR 13.5412 116.556 spur-merge 398 398 __________P___ -1 13.5412 116.556 1 15 233
1961284N18137 1961 105 WP MM NOT_NAMED 1961-10-17 00:00:00 NR 13.1000 116.000 spur-merge 426 426 __________O___ -1 13.1000 116.000 1 12 229
1961284N18137 1961 105 WP MM NOT_NAMED 1961-10-17 03:00:00 NR 12.7491 115.613 spur-merge 446 444 __________P___ -1 12.7491 115.613 1 9 224
1961284N18137 1961 105 WP MM NOT_NAMED 1961-10-17 06:00:00 NR 12.4261 115.340 spur-merge 450 438 __________P___ -1 12.4261 115.340 1 8 217
1961284N18137 1961 105 WP MM NOT_NAMED 1961-10-17 09:00:00 NR 12.1151 115.122 spur-merge 438 430 __________P___ -1 12.1151 115.122 1 8 214
1961284N18137 1961 105 WP MM NOT_NAMED 1961-10-17 12:00:00 NR 11.8000 114.900 spur-merge 430 415 __________O___ -1 11.8000 114.900 1 9 213
1961284N18137 1961 105 WP MM NOT_NAMED 1961-10-17 15:00:00 NR 11.3756 114.625 spur-merge 423 410 __________P___ -1 11.3756 114.625 1 10 213
1961284N18137 1961 105 WP MM NOT_NAMED 1961-10-17 18:00:00 NR 10.9569 114.332 spur-merge 422 413 __________P___ -1 10.9569 114.332 1 10 219
1961284N18137 1961 105 WP MM NOT_NAMED 1961-10-17 21:00:00 NR 10.6099 113.997 spur-merge 425 425 __________P___ -1 10.6099 113.997 1 9 232
1961284N18137 1961 105 WP MM NOT_NAMED 1961-10-18 00:00:00 NR 10.4000 113.600 spur-merge 453 451 __________O___ -1 10.4000 113.600 1 10 253
1961284N18137 1961 105 WP MM NOT_NAMED 1961-10-18 03:00:00 NR 10.3220 113.022 spur-merge 441 377 __________P___ -1 10.3220 113.022 1 12 270
1961284N18137 1961 105 WP MM NOT_NAMED 1961-10-18 06:00:00 NR 10.3940 112.396 spur-merge 377 318 __________P___ -1 10.3940 112.396 1 12 284
1961284N18137 1961 105 WP MM NOT_NAMED 1961-10-18 09:00:00 NR 10.6188 111.822 spur-merge 309 250 __________P___ -1 10.6188 111.822 1 12 302
1961284N18137 1961 105 WP MM NOT_NAMED 1961-10-18 12:00:00 NR 11.0000 111.400 spur-merge 250 225 __________O___ -1 11.0000 111.400 1 11 335
1961284N18137 1961 105 WP MM NOT_NAMED 1961-10-18 15:00:00 NR 11.5637 111.363 spur-merge 231 213 __________P___ -1 11.5342 111.203 1 13 3
1961284N18137 1961 105 WP MM NOT_NAMED 1961-10-18 18:00:00 NR 12.2662 111.469 spur-merge 219 217 __________P___ -1 12.1892 111.195 1 15 8
1961284N18137 1961 105 WP MM NOT_NAMED 1961-10-18 21:00:00 NR 13.0105 111.566 spur-merge 227 223 __________P___ -1 12.9246 111.315 1 14 1
1961284N18137 1961 105 WP MM NOT_NAMED 1961-10-19 00:00:00 NR 13.7000 111.500 spur-merge 234 __________O___ -1 13.7000 111.500 1 14 354

デジタル台風データ・検索

IBTrACS Databaseについて

本データベースは、米国NOAAが公開する1842年以降の世界の熱帯低気圧のベストトラックデータアーカイブInternational Best Track Archive for Climate Stewardship (IBTrACS)を、ウェブで閲覧しやすい形式に変換したものです。

最終更新日:2021-10-21